Time;durP1;ratioP1;P1;durP2;ratioP2;P2;SDS_P1;SDS_P2;PMS_P1;PMS_P2;Temp;Humidity;BMP_temperature;BMP_pressure;BME280_temperature;BME280_humidity;BME280_pressure;Samples;Min_cycle;Max_cycle;Signal;HPM_P1;HPM_P2
2021/06/22 00:01:04;;;;;;;10.07;4.35;;;20.30;99.10;;;;;;5054997;28;20503;-81
2021/06/22 00:03:30;;;;;;;7.70;4.10;;;20.20;99.10;;;;;;5054757;28;20197;-81
2021/06/22 00:05:55;;;;;;;13.33;4.37;;;20.20;99.10;;;;;;5054922;28;20218;-81
2021/06/22 00:08:22;;;;;;;14.20;4.47;;;20.20;99.10;;;;;;5054444;28;20495;-80
2021/06/22 00:10:48;;;;;;;6.22;4.35;;;20.20;99.10;;;;;;5054258;28;20922;-81
2021/06/22 00:13:14;;;;;;;10.77;3.85;;;20.20;99.10;;;;;;5054760;28;20197;-81
2021/06/22 00:15:40;;;;;;;9.10;5.40;;;20.20;99.10;;;;;;5054592;28;20165;-81
2021/06/22 00:18:06;;;;;;;8.57;4.10;;;20.30;99.10;;;;;;5054253;28;20223;-82
2021/06/22 00:20:32;;;;;;;11.60;5.50;;;20.30;99.10;;;;;;5053657;28;20600;-81
2021/06/22 00:22:58;;;;;;;7.07;4.20;;;20.30;99.10;;;;;;5053885;28;20197;-81
2021/06/22 00:25:25;;;;;;;7.17;4.80;;;20.30;99.10;;;;;;5057936;28;20176;-81
2021/06/22 00:27:51;;;;;;;7.78;3.92;;;20.30;99.10;;;;;;5057806;28;20193;-81
2021/06/22 00:30:19;;;;;;;10.73;4.43;;;20.30;99.10;;;;;;5057993;28;20226;-81
2021/06/22 00:32:45;;;;;;;3.55;3.30;;;20.30;99.10;;;;;;5057810;28;20200;-81
2021/06/22 00:35:12;;;;;;;5.00;4.10;;;20.30;99.10;;;;;;5057664;28;20177;-81
2021/06/22 00:37:40;;;;;;;6.90;4.70;;;20.30;99.10;;;;;;5057298;28;20551;-79
2021/06/22 00:40:06;;;;;;;8.18;4.38;;;20.30;99.10;;;;;;5057690;28;20262;-80
2021/06/22 00:42:32;;;;;;;7.05;4.35;;;20.40;99.10;;;;;;5057513;28;20205;-80
2021/06/22 00:44:59;;;;;;;6.10;4.40;;;20.40;99.10;;;;;;5058110;28;20183;-80
2021/06/22 00:47:26;;;;;;;8.27;4.80;;;20.40;99.10;;;;;;5057911;28;20459;-81
2021/06/22 00:49:53;;;;;;;6.05;3.78;;;20.40;99.10;;;;;;5057928;28;20165;-80
2021/06/22 00:52:23;;;;;;;7.28;4.95;;;20.50;99.10;;;;;;5057399;28;20250;-80
2021/06/22 00:54:50;;;;;;;8.45;4.68;;;20.50;99.10;;;;;;5057276;28;20263;-80
2021/06/22 00:57:17;;;;;;;7.35;4.50;;;20.50;99.10;;;;;;5056997;28;20177;-80
2021/06/22 00:59:43;;;;;;;7.20;4.65;;;20.50;99.10;;;;;;5057535;28;20181;-80
2021/06/22 01:02:08;;;;;;;10.43;6.30;;;20.50;99.10;;;;;;5056946;28;20683;-80
2021/06/22 01:04:35;;;;;;;7.17;4.40;;;20.50;99.10;;;;;;5056865;28;20200;-80
2021/06/22 01:07:02;;;;;;;8.95;4.80;;;20.50;99.10;;;;;;5056857;28;20184;-81
2021/06/22 01:09:29;;;;;;;7.18;4.50;;;20.50;99.10;;;;;;5057545;28;20174;-81
2021/06/22 01:11:58;;;;;;;5.72;4.28;;;20.50;99.10;;;;;;5057004;28;20173;-80
2021/06/22 01:14:25;;;;;;;10.32;5.72;;;20.50;99.10;;;;;;5057888;28;20181;-80
2021/06/22 01:16:52;;;;;;;8.43;4.60;;;20.50;99.10;;;;;;5057277;28;20260;-81
2021/06/22 01:19:18;;;;;;;9.05;4.65;;;20.50;99.10;;;;;;5057241;28;20264;-80
2021/06/22 01:21:43;;;;;;;12.10;5.45;;;20.50;99.10;;;;;;5057054;28;20668;-81
2021/06/22 01:24:09;;;;;;;13.03;5.13;;;20.50;99.10;;;;;;5057044;28;20196;-82
2021/06/22 01:26:37;;;;;;;7.63;5.00;;;20.50;99.10;;;;;;5056026;28;20535;-81
2021/06/22 01:29:05;;;;;;;9.02;5.57;;;20.40;99.00;;;;;;5056199;28;20490;-81
2021/06/22 01:31:31;;;;;;;9.00;4.28;;;20.40;99.10;;;;;;5055981;28;20215;-79
2021/06/22 01:33:57;;;;;;;8.48;4.75;;;20.40;98.60;;;;;;5055765;28;20241;-81
2021/06/22 01:36:23;;;;;;;6.20;4.57;;;20.30;99.10;;;;;;5056929;28;20585;-81
2021/06/22 01:38:49;;;;;;;12.10;4.50;;;20.30;99.10;;;;;;5056557;28;20586;-79
2021/06/22 01:41:15;;;;;;;5.50;4.28;;;20.30;98.80;;;;;;5055914;28;20267;-80
2021/06/22 01:43:41;;;;;;;9.80;4.50;;;20.30;99.10;;;;;;5056061;28;20197;-80
2021/06/22 01:46:07;;;;;;;7.33;4.33;;;20.30;99.10;;;;;;5056655;28;20180;-80
2021/06/22 01:48:35;;;;;;;5.65;4.10;;;20.30;99.10;;;;;;5056341;28;20461;-80
2021/06/22 01:51:01;;;;;;;11.30;3.90;;;20.10;98.60;;;;;;5056758;28;20165;-81
2021/06/22 01:53:27;;;;;;;8.03;4.70;;;20.10;98.80;;;;;;5056236;28;20566;-81
2021/06/22 01:55:53;;;;;;;8.37;4.60;;;20.10;98.50;;;;;;5056696;28;20915;-81
2021/06/22 01:58:20;;;;;;;6.57;4.40;;;20.10;98.80;;;;;;5056778;28;20443;-81
2021/06/22 02:00:51;;;;;;;9.05;4.25;;;20.00;99.10;;;;;;5056432;28;20999;-81
2021/06/22 02:03:19;;;;;;;7.60;3.70;;;20.00;98.90;;;;;;5056001;28;20197;-81
2021/06/22 02:05:46;;;;;;;10.32;4.53;;;20.00;98.90;;;;;;5055833;28;20174;-81
2021/06/22 02:08:12;;;;;;;6.55;3.60;;;19.90;99.10;;;;;;5056554;28;20201;-81
2021/06/22 02:10:38;;;;;;;5.35;3.97;;;19.90;99.10;;;;;;5056039;28;20173;-81
2021/06/22 02:13:04;;;;;;;4.80;3.90;;;19.90;99.10;;;;;;5055759;28;20193;-81
2021/06/22 02:15:30;;;;;;;4.53;3.28;;;19.90;99.10;;;;;;5055933;28;20454;-81
2021/06/22 02:17:56;;;;;;;4.63;3.42;;;19.90;98.30;;;;;;5055634;28;20181;-81
2021/06/22 02:20:22;;;;;;;6.55;3.83;;;19.90;98.20;;;;;;5055896;28;20557;-81
2021/06/22 02:22:48;;;;;;;5.53;3.75;;;19.80;98.50;;;;;;5055718;28;20193;-81
2021/06/22 02:25:15;;;;;;;6.87;3.07;;;19.80;98.10;;;;;;5056180;28;20237;-80
2021/06/22 02:27:43;;;;;;;4.65;2.92;;;19.70;98.20;;;;;;5055505;28;20205;-81
2021/06/22 02:30:12;;;;;;;5.35;3.50;;;19.70;98.60;;;;;;5056086;28;20170;-81
2021/06/22 02:32:39;;;;;;;6.72;3.90;;;19.70;98.70;;;;;;5055531;28;20193;-81
2021/06/22 02:35:07;;;;;;;6.75;3.65;;;19.80;98.80;;;;;;5055397;28;20172;-81
2021/06/22 02:37:33;;;;;;;4.07;3.08;;;19.80;99.00;;;;;;5055521;28;20177;-81
2021/06/22 02:39:59;;;;;;;3.67;3.00;;;19.90;98.70;;;;;;5055266;28;20197;-81
2021/06/22 02:42:24;;;;;;;7.23;4.30;;;19.90;98.60;;;;;;5055308;28;20196;-81
2021/06/22 02:44:50;;;;;;;8.33;3.00;;;19.90;98.10;;;;;;5055400;28;20173;-81
2021/06/22 02:47:17;;;;;;;5.70;3.40;;;19.90;98.00;;;;;;5054991;28;20255;-81
2021/06/22 02:49:43;;;;;;;4.72;2.50;;;19.90;98.00;;;;;;5055809;28;20697;-81
2021/06/22 02:52:09;;;;;;;4.67;4.00;;;19.90;98.70;;;;;;5054772;28;20220;-81
2021/06/22 02:54:38;;;;;;;4.65;3.88;;;19.80;98.90;;;;;;5055168;28;20174;-81
2021/06/22 02:57:12;;;;;;;4.47;3.22;;;19.80;98.60;;;;;;5055039;28;20197;-81
2021/06/22 02:59:39;;;;;;;4.85;3.20;;;19.80;99.00;;;;;;5055723;28;20214;-81
2021/06/22 03:02:05;;;;;;;9.38;4.53;;;19.90;98.60;;;;;;5056059;28;20216;-81
2021/06/22 03:04:31;;;;;;;6.63;3.20;;;19.90;98.60;;;;;;5055875;28;20184;-81
2021/06/22 03:06:59;;;;;;;11.40;4.18;;;19.80;98.60;;;;;;5039278;28;20192;-80
2021/06/22 03:09:25;;;;;;;4.47;3.22;;;19.80;98.70;;;;;;5055792;28;20180;-79
2021/06/22 03:11:53;;;;;;;4.73;3.50;;;19.80;99.00;;;;;;5054944;28;20168;-79
2021/06/22 03:14:20;;;;;;;9.88;3.65;;;19.80;99.10;;;;;;5055097;28;20423;-79
2021/06/22 03:16:46;;;;;;;5.63;3.20;;;19.80;99.10;;;;;;5054889;28;20227;-79
2021/06/22 03:19:13;;;;;;;8.27;4.27;;;19.70;99.10;;;;;;5054810;28;20173;-79
2021/06/22 03:21:45;;;;;;;3.33;2.97;;;19.70;99.10;;;;;;5054680;28;20637;-79
2021/06/22 03:24:15;;;;;;;11.82;5.60;;;19.70;99.10;;;;;;5055037;28;20532;-79
2021/06/22 03:26:42;;;;;;;7.50;4.43;;;19.80;99.10;;;;;;5054767;28;20641;-78
2021/06/22 03:29:09;;;;;;;23.05;3.92;;;19.70;98.70;;;;;;5054302;28;20205;-79
2021/06/22 03:31:36;;;;;;;9.93;3.60;;;19.70;98.70;;;;;;5054382;28;20177;-79
2021/06/22 03:34:03;;;;;;;6.60;3.50;;;19.70;99.00;;;;;;5053830;28;20266;-80
2021/06/22 03:36:29;;;;;;;7.32;3.50;;;19.70;99.10;;;;;;5054368;28;20173;-80
2021/06/22 03:38:55;;;;;;;9.02;4.15;;;19.70;99.10;;;;;;5054849;28;20268;-79
2021/06/22 03:41:21;;;;;;;5.60;3.13;;;19.70;99.10;;;;;;5054049;28;20223;-79
2021/06/22 03:43:47;;;;;;;10.33;3.33;;;19.70;99.10;;;;;;5054114;28;20192;-79
2021/06/22 03:46:18;;;;;;;7.20;3.97;;;19.80;99.10;;;;;;5054578;28;20447;-78
2021/06/22 03:48:44;;;;;;;5.45;3.40;;;19.80;99.10;;;;;;5054096;28;20448;-79
2021/06/22 03:51:10;;;;;;;5.63;3.50;;;19.80;99.10;;;;;;5053908;28;20192;-78
2021/06/22 03:53:37;;;;;;;10.07;3.87;;;19.80;99.10;;;;;;5054307;28;20200;-78
2021/06/22 03:56:07;;;;;;;9.68;3.40;;;19.80;99.10;;;;;;5054129;28;20407;-79
2021/06/22 03:58:33;;;;;;;6.03;4.10;;;19.90;99.10;;;;;;5054062;28;20222;-79
2021/06/22 04:01:00;;;;;;;7.10;4.00;;;19.90;99.10;;;;;;5055106;28;20180;-81
2021/06/22 04:03:26;;;;;;;8.43;3.80;;;19.90;99.10;;;;;;5054233;28;20224;-83
2021/06/22 04:05:52;;;;;;;8.80;4.13;;;19.90;99.10;;;;;;5055264;28;20223;-83
2021/06/22 04:08:17;;;;;;;9.07;4.97;;;19.90;99.10;;;;;;5054356;28;20540;-83
2021/06/22 04:10:43;;;;;;;14.27;3.80;;;19.90;99.10;;;;;;5055019;28;20200;-82
2021/06/22 04:13:12;;;;;;;8.60;5.30;;;19.90;99.10;;;;;;5056784;28;20197;-84
2021/06/22 04:15:38;;;;;;;6.95;4.88;;;19.90;99.10;;;;;;5055921;28;20169;-82
2021/06/22 04:18:06;;;;;;;10.00;4.47;;;19.90;99.10;;;;;;5056155;28;20183;-83
2021/06/22 04:20:33;;;;;;;9.35;5.45;;;19.90;99.10;;;;;;5055823;28;20412;-83
2021/06/22 04:22:59;;;;;;;8.40;5.38;;;19.90;99.10;;;;;;5054862;28;20653;-83
2021/06/22 04:25:25;;;;;;;8.35;5.82;;;19.90;99.10;;;;;;5055175;28;20183;-83
2021/06/22 04:27:51;;;;;;;9.93;7.07;;;19.90;99.10;;;;;;5054957;28;20205;-83
2021/06/22 04:30:17;;;;;;;10.00;7.03;;;20.00;99.10;;;;;;5054311;28;20783;-82
2021/06/22 04:32:43;;;;;;;8.75;5.70;;;20.00;99.10;;;;;;5053853;28;20575;-82
2021/06/22 04:35:10;;;;;;;12.30;7.47;;;20.00;99.10;;;;;;5054639;28;20169;-82
2021/06/22 04:37:36;;;;;;;12.13;7.13;;;20.00;99.10;;;;;;5053932;28;20410;-81
2021/06/22 04:40:02;;;;;;;12.67;6.63;;;20.10;99.10;;;;;;5054263;28;20177;-82
2021/06/22 04:42:28;;;;;;;20.15;7.90;;;20.10;99.10;;;;;;5055907;28;20438;-81
2021/06/22 04:44:54;;;;;;;15.53;7.10;;;20.20;99.10;;;;;;5054743;28;20177;-81
2021/06/22 04:47:20;;;;;;;12.43;7.27;;;20.20;99.10;;;;;;5054297;28;20566;-82
2021/06/22 04:49:46;;;;;;;14.27;9.17;;;20.20;99.10;;;;;;5054008;28;20407;-82
2021/06/22 04:52:12;;;;;;;18.83;9.67;;;20.20;99.10;;;;;;5054543;28;20439;-82
2021/06/22 04:54:39;;;;;;;20.00;10.13;;;20.30;99.10;;;;;;5053881;28;20169;-83
2021/06/22 04:57:05;;;;;;;20.55;10.70;;;20.30;99.10;;;;;;5053409;28;20180;-82
2021/06/22 04:59:36;;;;;;;16.77;9.75;;;20.30;99.10;;;;;;5053854;28;20536;-82
2021/06/22 05:02:05;;;;;;;18.80;9.15;;;20.40;99.10;;;;;;5053670;28;20172;-83
2021/06/22 05:04:34;;;;;;;16.88;9.90;;;20.40;99.10;;;;;;5053463;28;20188;-83
2021/06/22 05:06:59;;;;;;;17.20;10.35;;;20.50;99.10;;;;;;5053293;28;20223;-82
2021/06/22 05:09:25;;;;;;;19.37;10.07;;;20.50;99.10;;;;;;5053498;28;20206;-84
2021/06/22 05:11:51;;;;;;;20.93;10.83;;;20.50;99.10;;;;;;5057333;28;20419;-83
2021/06/22 05:14:17;;;;;;;16.73;11.40;;;20.50;99.10;;;;;;5056812;28;20404;-83
2021/06/22 05:16:43;;;;;;;23.70;11.00;;;20.50;99.10;;;;;;5056978;28;20452;-83
2021/06/22 05:19:09;;;;;;;19.40;11.90;;;20.40;99.10;;;;;;5057174;28;20261;-84
2021/06/22 05:21:35;;;;;;;22.20;12.13;;;20.50;99.10;;;;;;5057105;28;20921;-83
2021/06/22 05:24:00;;;;;;;18.10;10.53;;;20.50;99.10;;;;;;5056946;28;20196;-84
2021/06/22 05:26:26;;;;;;;21.70;11.10;;;20.50;99.10;;;;;;5057354;28;20268;-84
2021/06/22 05:28:52;;;;;;;17.73;10.37;;;20.60;99.10;;;;;;5057591;28;20641;-84
2021/06/22 05:31:18;;;;;;;16.70;10.40;;;20.70;99.10;;;;;;5057671;28;20182;-83
2021/06/22 05:33:44;;;;;;;18.48;11.80;;;20.70;99.10;;;;;;5056777;28;20669;-83
2021/06/22 05:36:10;;;;;;;17.50;11.80;;;20.80;99.10;;;;;;5057463;28;20672;-81
2021/06/22 05:38:36;;;;;;;16.90;11.40;;;20.80;99.10;;;;;;5056869;28;20177;-81
2021/06/22 05:41:02;;;;;;;20.00;11.73;;;20.80;99.10;;;;;;5059215;28;20543;-81
2021/06/22 05:43:28;;;;;;;22.73;12.35;;;20.80;99.10;;;;;;5058003;28;20220;-81
2021/06/22 05:45:54;;;;;;;24.30;11.20;;;20.80;99.10;;;;;;5057209;28;20173;-82
2021/06/22 05:48:19;;;;;;;20.07;11.40;;;20.90;99.10;;;;;;5056762;28;20250;-81
2021/06/22 05:50:45;;;;;;;16.57;11.60;;;21.00;99.10;;;;;;5057156;28;20412;-81
2021/06/22 05:53:11;;;;;;;19.07;10.90;;;21.00;99.10;;;;;;5056816;28;20227;-81
2021/06/22 05:55:36;;;;;;;17.03;10.20;;;21.00;98.90;;;;;;5056676;28;20181;-81
2021/06/22 05:58:03;;;;;;;17.57;10.87;;;21.10;98.90;;;;;;5056667;28;20705;-81
2021/06/22 06:00:31;;;;;;;19.67;10.20;;;21.00;98.50;;;;;;5056957;28;20196;-81
2021/06/22 06:02:57;;;;;;;15.95;9.70;;;21.00;98.70;;;;;;5056351;28;20197;-80
2021/06/22 06:05:23;;;;;;;15.50;9.97;;;21.00;98.20;;;;;;5056670;28;20185;-81
2021/06/22 06:07:50;;;;;;;11.05;8.65;;;21.00;98.40;;;;;;5056457;28;20447;-81
2021/06/22 06:10:16;;;;;;;10.38;6.90;;;21.10;98.20;;;;;;5056238;28;20170;-80
2021/06/22 06:12:43;;;;;;;15.75;7.90;;;21.20;97.40;;;;;;5056662;28;20189;-81
2021/06/22 06:15:10;;;;;;;11.02;7.70;;;21.20;97.40;;;;;;5056485;28;20541;-81
2021/06/22 06:17:37;;;;;;;17.90;7.93;;;21.30;97.00;;;;;;5055811;28;20170;-80
2021/06/22 06:20:09;;;;;;;14.30;9.95;;;21.30;95.70;;;;;;5056272;28;20634;-81
2021/06/22 06:22:35;;;;;;;12.20;8.05;;;21.30;96.00;;;;;;5054609;28;20276;-80
2021/06/22 06:25:04;;;;;;;13.02;8.32;;;21.20;95.30;;;;;;5056163;28;20173;-80
2021/06/22 06:27:51;;;;;;;18.33;7.45;;;21.30;96.00;;;;;;5055205;28;20201;-81
2021/06/22 06:30:20;;;;;;;14.35;7.47;;;21.40;96.00;;;;;;5055651;28;20165;-80
2021/06/22 06:32:47;;;;;;;12.15;7.30;;;21.50;95.00;;;;;;5055454;28;20193;-80
2021/06/22 06:35:13;;;;;;;14.25;7.40;;;21.60;95.50;;;;;;5055462;28;20231;-80
2021/06/22 06:37:39;;;;;;;19.10;7.72;;;21.60;94.50;;;;;;5055607;28;20715;-81
2021/06/22 06:40:08;;;;;;;12.27;7.63;;;21.60;94.80;;;;;;5055219;28;20181;-81
2021/06/22 06:42:34;;;;;;;17.55;8.90;;;21.50;94.80;;;;;;5055004;28;20243;-81
2021/06/22 06:45:00;;;;;;;11.70;7.43;;;21.50;94.60;;;;;;5056123;28;20175;-82
2021/06/22 06:47:26;;;;;;;19.27;8.30;;;21.60;95.50;;;;;;5056126;28;20462;-82
2021/06/22 06:49:51;;;;;;;20.57;8.80;;;21.50;95.00;;;;;;5055870;28;20228;-82
2021/06/22 06:52:17;;;;;;;19.03;11.20;;;21.40;95.40;;;;;;5055226;28;20437;-81
2021/06/22 06:54:43;;;;;;;15.33;9.80;;;21.40;95.90;;;;;;5054874;28;20177;-81
2021/06/22 06:57:10;;;;;;;17.20;10.80;;;21.50;96.40;;;;;;5055350;28;20169;-81
2021/06/22 06:59:35;;;;;;;16.02;10.15;;;21.60;96.10;;;;;;5055540;28;20925;-81
2021/06/22 07:02:02;;;;;;;21.20;11.67;;;21.60;96.00;;;;;;5055557;28;20219;-81
2021/06/22 07:04:27;;;;;;;18.20;11.38;;;21.50;95.40;;;;;;5055343;28;20428;-81
2021/06/22 07:06:53;;;;;;;16.77;10.17;;;21.50;96.00;;;;;;5055743;28;20260;-81
2021/06/22 07:09:19;;;;;;;22.13;10.50;;;21.60;96.30;;;;;;5054723;28;20237;-81
2021/06/22 07:11:45;;;;;;;16.87;11.37;;;21.70;95.60;;;;;;5054172;28;20408;-81
2021/06/22 07:14:14;;;;;;;20.40;11.57;;;21.80;95.40;;;;;;5053648;28;20169;-81
2021/06/22 07:16:40;;;;;;;20.90;11.13;;;21.80;95.10;;;;;;5054213;28;20169;-81
2021/06/22 07:19:06;;;;;;;17.00;10.40;;;21.90;93.70;;;;;;5054291;28;20680;-81
2021/06/22 07:21:31;;;;;;;18.10;11.63;;;21.80;95.30;;;;;;5055083;28;20173;-81
2021/06/22 07:23:57;;;;;;;19.27;10.93;;;22.00;95.90;;;;;;5054733;28;20467;-81
2021/06/22 07:26:23;;;;;;;19.37;10.30;;;22.30;95.00;;;;;;5054954;28;20652;-81
2021/06/22 07:28:49;;;;;;;20.30;10.00;;;22.60;93.50;;;;;;5055342;28;20297;-80
2021/06/22 07:31:14;;;;;;;15.93;10.07;;;22.70;92.60;;;;;;5054038;28;20246;-81
2021/06/22 07:33:41;;;;;;;16.10;10.10;;;22.60;92.60;;;;;;5055096;28;20196;-82
2021/06/22 07:36:08;;;;;;;18.15;9.85;;;22.70;92.60;;;;;;5055391;28;20170;-81
2021/06/22 07:38:34;;;;;;;15.15;9.35;;;22.70;92.80;;;;;;5055065;28;20196;-81
2021/06/22 07:41:00;;;;;;;16.23;9.13;;;22.70;92.70;;;;;;5054945;28;20260;-81
2021/06/22 07:43:25;;;;;;;18.43;11.20;;;22.80;91.70;;;;;;5055348;28;20640;-81
2021/06/22 07:45:52;;;;;;;13.70;9.90;;;22.90;90.30;;;;;;5055436;28;20180;-81
2021/06/22 07:48:18;;;;;;;17.95;9.20;;;23.10;90.60;;;;;;5055196;28;20787;-81
2021/06/22 07:50:44;;;;;;;14.83;8.17;;;23.30;90.60;;;;;;5054708;28;20195;-81
2021/06/22 07:53:09;;;;;;;15.30;9.23;;;23.50;87.80;;;;;;5054029;28;20435;-82
2021/06/22 07:55:35;;;;;;;15.03;6.47;;;23.60;87.00;;;;;;5054399;28;20953;-82
2021/06/22 07:58:01;;;;;;;17.53;7.73;;;23.70;86.30;;;;;;5054108;28;20426;-81
2021/06/22 08:00:42;;;;;;;11.80;5.57;;;23.60;86.60;;;;;;5054054;28;20975;-81
2021/06/22 08:03:09;;;;;;;14.60;6.25;;;23.60;85.90;;;;;;5054029;28;20795;-82
2021/06/22 08:05:36;;;;;;;10.60;5.97;;;23.50;85.60;;;;;;5053924;28;20193;-82
2021/06/22 08:08:01;;;;;;;16.35;6.68;;;23.40;87.00;;;;;;5054639;28;20208;-81
2021/06/22 08:10:28;;;;;;;9.50;7.10;;;23.30;86.90;;;;;;5054265;28;20169;-81
2021/06/22 08:12:54;;;;;;;13.77;7.55;;;23.20;87.70;;;;;;5053829;28;20189;-81
2021/06/22 08:15:20;;;;;;;13.93;8.30;;;23.10;87.70;;;;;;5055570;28;20165;-81
2021/06/22 08:17:46;;;;;;;10.93;6.78;;;23.00;88.00;;;;;;5054371;28;20200;-81
2021/06/22 08:20:12;;;;;;;19.83;7.50;;;23.00;89.50;;;;;;5053970;28;20645;-82
2021/06/22 08:22:39;;;;;;;18.40;7.22;;;23.00;89.50;;;;;;5053517;28;20250;-80
2021/06/22 08:25:06;;;;;;;12.07;8.13;;;22.90;89.60;;;;;;5053896;28;20177;-80
2021/06/22 08:27:32;;;;;;;11.40;7.00;;;22.90;88.80;;;;;;5052474;28;20658;-81
2021/06/22 08:29:58;;;;;;;13.57;7.37;;;22.90;89.50;;;;;;5053107;28;20165;-80
2021/06/22 08:32:23;;;;;;;8.53;4.90;;;22.80;88.70;;;;;;5053034;28;20189;-81
2021/06/22 08:34:49;;;;;;;8.37;5.20;;;22.70;89.80;;;;;;5053069;28;20269;-80
2021/06/22 08:37:15;;;;;;;5.40;4.43;;;22.60;90.40;;;;;;5053242;28;20443;-80
2021/06/22 08:39:41;;;;;;;7.70;5.37;;;22.60;90.80;;;;;;5053512;28;20410;-80
2021/06/22 08:42:09;;;;;;;11.73;5.40;;;22.70;91.30;;;;;;5053449;28;20558;-80
2021/06/22 08:44:37;;;;;;;17.83;6.00;;;22.80;91.50;;;;;;5054305;28;20434;-81
2021/06/22 08:47:03;;;;;;;11.93;6.40;;;22.80;90.40;;;;;;5057079;28;20166;-80
2021/06/22 08:49:33;;;;;;;14.63;7.50;;;22.80;91.20;;;;;;5058223;28;20192;-80
2021/06/22 08:52:00;;;;;;;14.50;6.43;;;22.60;91.20;;;;;;5057016;28;20168;-80
2021/06/22 08:54:27;;;;;;;11.25;6.45;;;22.60;92.00;;;;;;5057173;28;20176;-81
2021/06/22 08:56:55;;;;;;;15.73;7.75;;;22.60;92.40;;;;;;5057046;28;20203;-80
2021/06/22 08:59:20;;;;;;;13.93;7.32;;;22.50;92.40;;;;;;5056788;28;20177;-80
2021/06/22 09:01:46;;;;;;;18.47;8.47;;;22.50;92.90;;;;;;5056849;28;20265;-80
2021/06/22 09:04:12;;;;;;;16.97;7.77;;;22.60;92.90;;;;;;5056690;28;20197;-80
2021/06/22 09:06:43;;;;;;;13.70;8.10;;;22.50;92.10;;;;;;5056960;28;20915;-81
2021/06/22 09:09:09;;;;;;;16.73;8.38;;;22.40;92.40;;;;;;5056570;28;20200;-81
2021/06/22 09:11:36;;;;;;;17.30;9.45;;;22.30;92.60;;;;;;5055978;28;20276;-81
2021/06/22 09:14:04;;;;;;;16.52;9.18;;;22.20;92.50;;;;;;5055942;28;20557;-81
2021/06/22 09:16:31;;;;;;;19.13;8.90;;;22.20;93.00;;;;;;5057081;28;20165;-81
2021/06/22 09:19:08;;;;;;;21.08;10.23;;;22.00;94.00;;;;;;5056017;28;20181;-81
2021/06/22 09:21:42;;;;;;;16.98;9.27;;;22.00;94.80;;;;;;5055858;28;20165;-81
2021/06/22 09:24:24;;;;;;;15.13;10.27;;;22.00;94.90;;;;;;5056020;28;20192;-81
2021/06/22 09:26:51;;;;;;;27.17;14.18;;;22.00;95.90;;;;;;5056182;28;20169;-80
2021/06/22 09:29:20;;;;;;;20.27;11.10;;;22.10;95.30;;;;;;5056270;28;20669;-80
2021/06/22 09:31:58;;;;;;;18.60;9.88;;;22.10;95.10;;;;;;5056266;28;20169;-81
2021/06/22 09:34:26;;;;;;;22.88;13.13;;;21.90;94.90;;;;;;5055897;28;20247;-81
2021/06/22 09:36:54;;;;;;;21.38;10.95;;;21.80;94.80;;;;;;5056676;28;20718;-81
2021/06/22 09:39:22;;;;;;;22.40;13.32;;;21.70;94.60;;;;;;5055300;28;20273;-81
2021/06/22 09:41:49;;;;;;;22.63;11.68;;;21.60;95.70;;;;;;5055486;28;20177;-80
2021/06/22 09:44:16;;;;;;;19.83;10.65;;;21.70;96.20;;;;;;5055974;28;20268;-81
2021/06/22 09:46:50;;;;;;;17.05;10.43;;;21.80;94.70;;;;;;5056059;28;20223;-80
2021/06/22 09:49:17;;;;;;;21.05;10.10;;;21.80;95.80;;;;;;5055476;28;20605;-81
2021/06/22 09:51:58;;;;;;;24.25;11.80;;;21.90;95.10;;;;;;5055299;28;20280;-81
2021/06/22 09:54:35;;;;;;;22.42;12.60;;;21.90;94.40;;;;;;5056540;28;20178;-81
2021/06/22 09:57:17;;;;;;;18.48;11.82;;;21.90;94.20;;;;;;5055473;28;20223;-79
2021/06/22 09:59:45;;;;;;;19.35;10.40;;;21.80;95.20;;;;;;5055567;28;20183;-81
2021/06/22 10:02:11;;;;;;;18.33;11.25;;;21.80;95.50;;;;;;5054952;28;20220;-81
2021/06/22 10:04:41;;;;;;;16.40;11.10;;;21.80;94.70;;;;;;5055640;28;20599;-81
2021/06/22 10:07:12;;;;;;;18.48;12.00;;;21.60;94.40;;;;;;5058146;28;20462;-81
2021/06/22 10:09:39;;;;;;;18.08;10.23;;;21.60;95.00;;;;;;5057652;28;20291;-79
2021/06/22 10:12:09;;;;;;;15.82;10.52;;;21.60;94.30;;;;;;5057829;28;20219;-80
2021/06/22 10:14:43;;;;;;;15.80;10.60;;;21.60;94.40;;;;;;5058799;28;20166;-80
2021/06/22 10:17:11;;;;;;;19.35;9.65;;;21.70;94.60;;;;;;5059602;28;20193;-80
2021/06/22 10:19:38;;;;;;;14.65;8.60;;;21.90;95.00;;;;;;5058968;28;20537;-80
2021/06/22 10:22:05;;;;;;;11.30;6.82;;;22.10;92.80;;;;;;5059148;28;20181;-81
2021/06/22 10:24:33;;;;;;;16.35;9.30;;;22.20;91.00;;;;;;5056716;28;20637;-81
2021/06/22 10:26:59;;;;;;;15.13;9.45;;;22.20;91.90;;;;;;5057072;28;20208;-81
2021/06/22 10:29:26;;;;;;;14.13;8.25;;;22.10;92.00;;;;;;5058108;28;20677;-83
2021/06/22 10:31:54;;;;;;;12.35;8.70;;;22.10;92.00;;;;;;5057672;28;20166;-83
2021/06/22 10:34:20;;;;;;;13.82;8.20;;;22.10;91.60;;;;;;5057283;28;20169;-83
2021/06/22 10:37:03;;;;;;;11.20;7.57;;;22.00;92.30;;;;;;5056766;28;20173;-82
2021/06/22 10:39:47;;;;;;;13.32;8.27;;;22.00;91.60;;;;;;5057121;28;20641;-80
2021/06/22 10:42:14;;;;;;;9.75;7.25;;;21.80;91.40;;;;;;5058396;28;20191;-81
2021/06/22 10:45:01;;;;;;;11.25;7.40;;;21.80;91.80;;;;;;5057206;28;20169;-80
2021/06/22 10:47:36;;;;;;;10.20;6.85;;;21.80;92.20;;;;;;5056888;28;20530;-81
2021/06/22 10:50:05;;;;;;;17.52;7.03;;;21.70;93.10;;;;;;5057841;28;20175;-80
2021/06/22 10:52:44;;;;;;;14.77;7.63;;;21.70;92.90;;;;;;5056559;28;20188;-80
2021/06/22 10:55:21;;;;;;;12.57;7.72;;;21.60;93.40;;;;;;5056363;28;20521;-81
2021/06/22 11:00:56;;;;;;;16.35;7.93;;;21.50;93.90;;;;;;5057791;28;20216;-80
2021/06/22 11:03:32;;;;;;;17.27;7.38;;;21.40;93.70;;;;;;5055953;28;20287;-81
2021/06/22 11:06:21;;;;;;;12.20;7.13;;;21.40;93.10;;;;;;5057713;28;20191;-80
2021/06/22 11:08:47;;;;;;;16.50;7.90;;;21.30;93.50;;;;;;5056771;28;20200;-82
2021/06/22 11:11:13;;;;;;;20.23;8.45;;;21.30;95.10;;;;;;5055885;28;20649;-81
2021/06/22 11:13:41;;;;;;;17.53;9.97;;;21.40;94.60;;;;;;5056781;28;20189;-81
2021/06/22 11:16:13;;;;;;;13.70;8.43;;;21.30;96.00;;;;;;5056212;28;20408;-81
2021/06/22 11:18:54;;;;;;;15.63;9.52;;;21.30;96.10;;;;;;5056149;28;20169;-81
2021/06/22 11:21:34;;;;;;;15.55;9.27;;;21.30;96.10;;;;;;5056327;28;20176;-82
2021/06/22 11:24:10;;;;;;;14.43;7.90;;;21.30;97.30;;;;;;5056720;28;20246;-81
2021/06/22 11:26:45;;;;;;;15.43;8.05;;;21.10;96.60;;;;;;5056562;28;20173;-82
2021/06/22 11:29:12;;;;;;;17.00;8.25;;;21.10;96.10;;;;;;5057010;28;20196;-82
2021/06/22 11:31:38;;;;;;;16.63;8.63;;;21.00;97.00;;;;;;5054095;28;20184;-80
2021/06/22 11:34:11;;;;;;;17.13;8.13;;;20.90;96.30;;;;;;5053536;28;20193;-81
2021/06/22 11:36:48;;;;;;;17.40;8.13;;;20.80;96.90;;;;;;5053377;28;20416;-78
2021/06/22 11:39:19;;;;;;;17.45;8.63;;;20.80;97.50;;;;;;5053036;28;20547;-80
2021/06/22 11:42:07;;;;;;;24.83;8.70;;;20.70;97.60;;;;;;5053094;28;20180;-79
2021/06/22 11:44:34;;;;;;;12.23;6.80;;;20.70;96.40;;;;;;5053409;28;20185;-79
2021/06/22 11:47:04;;;;;;;12.05;8.00;;;20.50;96.60;;;;;;5053430;28;20227;-79
2021/06/22 11:49:44;;;;;;;12.65;7.43;;;20.50;96.80;;;;;;5053041;28;20197;-79
2021/06/22 11:52:11;;;;;;;11.45;6.95;;;20.50;97.20;;;;;;5052953;28;20185;-79
2021/06/22 11:54:54;;;;;;;16.15;7.45;;;20.50;96.90;;;;;;5053498;28;20177;-79
2021/06/22 11:57:26;;;;;;;20.52;7.88;;;20.50;96.80;;;;;;5053003;28;20165;-79
2021/06/22 11:59:54;;;;;;;18.25;6.70;;;20.50;96.70;;;;;;5052994;28;20161;-79
2021/06/22 12:02:20;;;;;;;15.55;8.15;;;20.50;96.40;;;;;;5053272;28;20232;-79
2021/06/22 12:04:48;;;;;;;10.38;6.40;;;20.50;96.50;;;;;;5053523;28;20197;-79
2021/06/22 12:07:14;;;;;;;14.02;7.32;;;20.50;97.40;;;;;;5052914;28;20173;-79
2021/06/22 12:09:41;;;;;;;12.73;6.32;;;20.50;96.80;;;;;;5052902;28;20208;-79
2021/06/22 12:12:08;;;;;;;13.80;6.53;;;20.50;97.20;;;;;;5052880;28;20661;-79
2021/06/22 12:14:34;;;;;;;14.60;7.00;;;20.50;97.30;;;;;;5052859;28;20176;-79
2021/06/22 12:17:11;;;;;;;12.18;7.85;;;20.50;97.20;;;;;;5052841;28;20169;-79
2021/06/22 12:19:37;;;;;;;7.82;5.70;;;20.50;96.80;;;;;;5054110;28;20173;-79
2021/06/22 12:22:04;;;;;;;14.73;6.90;;;20.50;97.60;;;;;;5057167;28;20641;-80
2021/06/22 12:24:29;;;;;;;9.75;6.25;;;20.50;96.70;;;;;;5057116;28;20422;-80
2021/06/22 12:26:55;;;;;;;12.27;7.17;;;20.50;97.00;;;;;;5057711;28;20173;-80
2021/06/22 12:29:26;;;;;;;11.00;5.70;;;20.50;95.60;;;;;;5057245;28;20265;-80
2021/06/22 12:31:54;;;;;;;8.13;5.15;;;20.40;96.30;;;;;;5056775;28;20403;-80
2021/06/22 12:34:22;;;;;;;9.18;5.07;;;20.30;95.80;;;;;;5057472;28;20165;-80
2021/06/22 12:36:48;;;;;;;10.05;5.20;;;20.10;95.80;;;;;;5057813;28;20256;-80
2021/06/22 12:39:15;;;;;;;14.50;6.10;;;20.10;96.40;;;;;;5057640;28;20197;-81
2021/06/22 12:41:45;;;;;;;9.07;5.75;;;20.00;96.00;;;;;;5059333;28;20409;-80
2021/06/22 12:44:11;;;;;;;12.38;6.10;;;20.00;97.00;;;;;;5057051;28;20180;-80